Time;durP1;ratioP1;P1;durP2;ratioP2;P2;SDS_P1;SDS_P2;PMS_P1;PMS_P2;Temp;Humidity;BMP_temperature;BMP_pressure;BME280_temperature;BME280_humidity;BME280_pressure;Samples;Min_cycle;Max_cycle;Signal;HPM_P1;HPM_P2
2020/12/16 00:01:40;;;;;;;122.72;32.15;;;8.10;99.00;;;;;;4985268;28;20176;-68
2020/12/16 00:04:06;;;;;;;120.47;33.15;;;8.10;99.00;;;;;;4984619;28;20030;-68
2020/12/16 00:06:32;;;;;;;123.07;34.05;;;8.10;99.00;;;;;;4987462;28;20035;-68
2020/12/16 00:08:57;;;;;;;114.53;32.40;;;8.10;99.00;;;;;;4994793;28;20075;-70
2020/12/16 00:11:23;;;;;;;123.70;32.03;;;8.10;99.00;;;;;;4998070;28;20522;-68
2020/12/16 00:13:48;;;;;;;136.52;29.77;;;8.10;99.00;;;;;;5005558;28;20029;-69
2020/12/16 00:16:14;;;;;;;127.18;30.52;;;8.00;99.00;;;;;;4988392;28;20110;-69
2020/12/16 00:18:39;;;;;;;102.65;28.92;;;8.00;99.00;;;;;;4989153;28;20115;-68
2020/12/16 00:21:05;;;;;;;131.63;29.92;;;8.00;99.00;;;;;;4979078;28;20097;-69
2020/12/16 00:23:31;;;;;;;122.93;30.77;;;8.00;99.00;;;;;;4990621;28;20038;-69
2020/12/16 00:25:56;;;;;;;116.45;30.23;;;8.00;99.00;;;;;;4987402;28;20061;-69
2020/12/16 00:28:22;;;;;;;135.25;29.48;;;7.90;98.90;;;;;;4987675;28;20038;-68
2020/12/16 00:30:48;;;;;;;137.27;30.23;;;7.90;99.00;;;;;;4985051;28;20022;-69
2020/12/16 00:33:16;;;;;;;150.20;30.70;;;7.90;99.00;;;;;;4989177;28;20041;-69
2020/12/16 00:35:42;;;;;;;160.73;30.73;;;7.90;99.00;;;;;;4988269;28;20060;-69
2020/12/16 00:38:10;;;;;;;167.50;30.40;;;7.90;99.00;;;;;;4988287;28;20034;-68
2020/12/16 00:40:35;;;;;;;141.50;30.27;;;7.90;99.00;;;;;;4988597;28;20133;-70
2020/12/16 00:43:01;;;;;;;137.13;29.83;;;7.80;99.00;;;;;;4980266;28;20098;-69
2020/12/16 00:45:26;;;;;;;97.70;30.70;;;7.90;99.00;;;;;;4976116;28;20026;-68
2020/12/16 00:47:52;;;;;;;131.20;31.38;;;7.90;99.00;;;;;;4991978;28;20042;-69
2020/12/16 00:50:18;;;;;;;137.15;32.35;;;7.90;99.00;;;;;;4989355;28;20455;-69
2020/12/16 00:52:43;;;;;;;155.32;31.88;;;7.90;99.00;;;;;;4997637;28;20120;-69
2020/12/16 00:55:09;;;;;;;174.05;31.33;;;7.90;99.00;;;;;;5000732;28;20064;-68
2020/12/16 00:57:34;;;;;;;139.30;31.08;;;7.90;99.00;;;;;;4990797;28;20040;-69
2020/12/16 01:00:03;;;;;;;158.32;31.25;;;8.00;99.00;;;;;;4988592;28;20363;-69
2020/12/16 01:02:29;;;;;;;145.32;31.08;;;7.90;99.00;;;;;;4989630;28;20105;-69
2020/12/16 01:04:54;;;;;;;171.23;32.03;;;7.90;99.00;;;;;;4988313;28;20117;-69
2020/12/16 01:07:20;;;;;;;151.02;33.30;;;7.90;99.00;;;;;;4983421;28;20034;-69
2020/12/16 01:09:45;;;;;;;145.90;32.97;;;7.90;99.00;;;;;;4990699;28;20578;-69
2020/12/16 01:12:11;;;;;;;145.38;32.60;;;7.90;99.00;;;;;;4984305;28;20117;-69
2020/12/16 01:14:37;;;;;;;126.78;32.42;;;7.90;99.00;;;;;;4984022;28;20076;-69
2020/12/16 01:17:02;;;;;;;170.65;33.47;;;8.00;99.10;;;;;;4985841;28;20436;-69
2020/12/16 01:19:28;;;;;;;146.00;32.85;;;8.00;99.00;;;;;;4988390;28;20057;-69
2020/12/16 01:21:53;;;;;;;132.38;31.45;;;7.90;99.10;;;;;;4996760;28;20088;-69
2020/12/16 01:24:19;;;;;;;126.95;32.03;;;7.90;99.00;;;;;;4987588;28;20137;-68
2020/12/16 01:26:46;;;;;;;163.63;33.80;;;7.90;99.00;;;;;;4989051;28;20034;-69
2020/12/16 01:29:13;;;;;;;142.50;32.17;;;7.90;99.00;;;;;;4988378;28;20030;-69
2020/12/16 01:31:41;;;;;;;147.45;31.88;;;7.90;99.00;;;;;;4986789;28;20423;-69
2020/12/16 01:34:06;;;;;;;177.15;33.35;;;7.90;99.00;;;;;;4973207;28;20044;-69
2020/12/16 01:36:32;;;;;;;165.70;32.90;;;7.90;99.00;;;;;;4988574;28;20019;-68
2020/12/16 01:38:58;;;;;;;123.50;32.63;;;7.80;99.00;;;;;;4987275;28;20490;-71
2020/12/16 01:41:24;;;;;;;162.60;31.83;;;7.90;99.10;;;;;;4987511;28;20029;-69
2020/12/16 01:43:50;;;;;;;147.23;33.28;;;7.80;99.00;;;;;;4988423;28;20030;-69
2020/12/16 01:46:16;;;;;;;147.27;32.33;;;7.80;99.00;;;;;;4999137;28;20026;-69
2020/12/16 01:48:42;;;;;;;154.82;33.63;;;7.80;99.00;;;;;;4986608;28;20475;-69
2020/12/16 01:51:14;;;;;;;153.48;32.35;;;7.80;99.00;;;;;;4983098;28;20030;-70
2020/12/16 01:53:43;;;;;;;168.40;31.85;;;7.80;99.00;;;;;;4982037;28;20042;-68
2020/12/16 01:56:10;;;;;;;154.98;33.05;;;7.80;99.00;;;;;;4988073;28;20382;-71
2020/12/16 01:58:40;;;;;;;150.43;32.97;;;7.80;99.10;;;;;;4987117;28;20120;-69
2020/12/16 02:01:06;;;;;;;131.27;31.55;;;7.70;99.00;;;;;;4986991;28;20153;-69
2020/12/16 02:03:34;;;;;;;173.43;31.95;;;7.80;99.00;;;;;;4985751;28;20437;-69
2020/12/16 02:06:02;;;;;;;143.77;32.67;;;7.70;99.00;;;;;;4986411;28;20177;-72
2020/12/16 02:08:29;;;;;;;146.82;32.13;;;7.80;99.00;;;;;;5038629;22;20060;-67
2020/12/16 02:10:56;;;;;;;195.02;33.80;;;7.80;99.10;;;;;;5045064;28;20033;-69
2020/12/16 02:13:21;;;;;;;173.13;31.90;;;7.70;99.00;;;;;;5045269;28;20367;-69
2020/12/16 02:15:47;;;;;;;167.45;34.47;;;7.80;99.10;;;;;;5043213;28;20044;-69
2020/12/16 02:18:14;;;;;;;201.32;33.55;;;7.80;99.00;;;;;;5041193;28;20057;-68
2020/12/16 02:20:41;;;;;;;175.48;33.78;;;7.80;99.10;;;;;;5037619;28;20040;-69
2020/12/16 02:23:09;;;;;;;175.32;35.33;;;7.80;99.10;;;;;;5048771;28;20074;-68
2020/12/16 02:25:35;;;;;;;138.88;33.88;;;7.80;99.10;;;;;;5049255;28;20099;-69
2020/12/16 02:28:01;;;;;;;183.07;34.08;;;7.80;99.10;;;;;;5043091;28;20021;-68
2020/12/16 02:30:26;;;;;;;193.25;33.75;;;7.80;99.10;;;;;;5049563;28;20044;-69
2020/12/16 02:32:52;;;;;;;184.60;35.10;;;7.80;99.10;;;;;;5048155;28;20512;-68
2020/12/16 02:35:18;;;;;;;196.75;35.50;;;7.80;99.10;;;;;;5048871;28;20025;-69
2020/12/16 02:37:43;;;;;;;184.80;36.40;;;7.80;99.10;;;;;;5042766;28;20477;-69
2020/12/16 02:40:09;;;;;;;204.98;35.70;;;7.90;99.10;;;;;;5049268;28;20163;-69
2020/12/16 02:42:34;;;;;;;208.35;35.63;;;7.90;99.10;;;;;;5046783;28;20032;-70
2020/12/16 02:45:00;;;;;;;208.45;35.58;;;7.90;99.10;;;;;;5047414;28;20025;-68
2020/12/16 02:47:26;;;;;;;181.13;34.55;;;7.90;99.10;;;;;;5048003;28;20029;-69
2020/12/16 02:49:52;;;;;;;199.93;35.58;;;7.90;99.10;;;;;;5049433;28;20057;-68
2020/12/16 02:52:17;;;;;;;221.57;35.97;;;7.80;99.10;;;;;;5047628;28;20106;-69
2020/12/16 02:54:43;;;;;;;164.90;34.50;;;7.80;99.10;;;;;;5049278;28;20025;-69
2020/12/16 02:57:09;;;;;;;200.10;33.40;;;7.80;99.10;;;;;;5048024;28;20116;-68
2020/12/16 02:59:34;;;;;;;191.98;33.33;;;7.80;99.10;;;;;;5041119;28;20036;-69
2020/12/16 03:02:00;;;;;;;176.55;35.22;;;7.80;99.10;;;;;;5041876;28;20032;-68
2020/12/16 03:04:27;;;;;;;234.65;35.15;;;7.80;99.10;;;;;;5049745;28;20025;-69
2020/12/16 03:06:54;;;;;;;206.43;34.38;;;7.80;99.10;;;;;;5045751;28;20021;-69
2020/12/16 03:09:22;;;;;;;208.55;35.50;;;7.80;99.10;;;;;;5048865;28;20260;-69
2020/12/16 03:11:55;;;;;;;196.45;35.00;;;7.80;99.10;;;;;;5047110;28;20052;-68
2020/12/16 03:14:22;;;;;;;195.88;34.53;;;7.80;99.10;;;;;;5035837;28;20037;-68
2020/12/16 03:16:48;;;;;;;145.77;33.20;;;7.80;99.10;;;;;;5045177;28;20029;-69
2020/12/16 03:19:14;;;;;;;172.48;33.88;;;7.80;99.10;;;;;;5036794;28;20036;-68
2020/12/16 03:21:39;;;;;;;165.75;34.47;;;7.80;99.10;;;;;;5043280;28;20754;-69
2020/12/16 03:24:05;;;;;;;189.35;33.40;;;7.80;99.10;;;;;;5037584;28;20083;-69
2020/12/16 03:26:30;;;;;;;143.43;32.58;;;7.70;99.10;;;;;;5046869;28;20489;-69
2020/12/16 03:28:56;;;;;;;164.40;32.55;;;7.70;99.10;;;;;;5042831;28;20033;-68
2020/12/16 03:31:22;;;;;;;162.45;32.42;;;7.70;99.10;;;;;;5038308;28;20040;-69
2020/12/16 03:33:48;;;;;;;151.68;33.17;;;7.70;99.10;;;;;;5029839;28;20029;-70
2020/12/16 03:36:18;;;;;;;146.65;33.65;;;7.70;99.10;;;;;;5048975;28;20036;-69
2020/12/16 03:38:44;;;;;;;168.02;34.42;;;7.70;99.10;;;;;;5047768;28;20041;-69
2020/12/16 03:41:12;;;;;;;155.27;33.88;;;7.70;99.10;;;;;;5051861;28;20057;-69
2020/12/16 03:43:38;;;;;;;143.70;31.50;;;7.70;99.10;;;;;;5051770;28;20017;-70
2020/12/16 03:46:11;;;;;;;148.63;33.97;;;7.70;99.10;;;;;;5049287;28;20470;-68
2020/12/16 03:48:38;;;;;;;162.60;33.42;;;7.70;99.10;;;;;;5045179;28;20108;-69
2020/12/16 03:51:08;;;;;;;157.93;33.00;;;7.70;99.10;;;;;;5050900;28;20021;-68
2020/12/16 03:53:34;;;;;;;155.73;33.23;;;7.70;99.10;;;;;;5049703;28;20039;-68
2020/12/16 03:56:15;;;;;;;134.95;31.80;;;7.70;99.10;;;;;;5052481;28;20275;-69
2020/12/16 03:58:42;;;;;;;163.50;34.17;;;7.70;99.10;;;;;;5049796;28;20029;-70
2020/12/16 04:01:11;;;;;;;134.02;31.88;;;7.70;99.10;;;;;;5050055;28;20091;-66
2020/12/16 04:03:37;;;;;;;145.93;32.55;;;7.70;99.10;;;;;;5050984;28;20505;-67
2020/12/16 04:06:07;;;;;;;158.30;33.05;;;7.70;99.10;;;;;;5051417;28;20025;-67
2020/12/16 04:08:34;;;;;;;174.02;33.45;;;7.70;99.10;;;;;;5051244;28;20048;-67
2020/12/16 04:10:59;;;;;;;166.57;35.35;;;7.70;99.10;;;;;;5042861;28;20481;-67
2020/12/16 04:13:25;;;;;;;151.05;34.50;;;7.70;99.10;;;;;;5046653;28;20044;-67
2020/12/16 04:15:51;;;;;;;136.15;33.80;;;7.70;99.10;;;;;;5051481;28;20036;-67
2020/12/16 04:18:16;;;;;;;135.45;33.38;;;7.70;99.10;;;;;;5051368;28;20401;-67
2020/12/16 04:20:42;;;;;;;161.38;33.38;;;7.70;99.10;;;;;;5051128;28;20044;-67
2020/12/16 04:23:08;;;;;;;165.55;34.47;;;7.70;99.10;;;;;;5051657;28;20028;-67
2020/12/16 04:25:34;;;;;;;143.25;33.88;;;7.70;99.10;;;;;;5051405;28;20487;-67
2020/12/16 04:28:00;;;;;;;181.38;36.10;;;7.70;99.10;;;;;;5051698;28;20056;-67
2020/12/16 04:30:29;;;;;;;154.77;34.92;;;7.70;99.10;;;;;;5046406;28;20029;-67
2020/12/16 04:32:56;;;;;;;153.80;34.45;;;7.70;99.10;;;;;;5050962;28;20025;-66
2020/12/16 04:35:24;;;;;;;155.93;35.17;;;7.70;99.10;;;;;;5051676;28;20033;-67
2020/12/16 04:37:50;;;;;;;139.70;34.45;;;7.70;99.10;;;;;;5037376;28;20021;-68
2020/12/16 04:40:16;;;;;;;147.57;34.08;;;7.70;99.10;;;;;;5051522;28;20033;-69
2020/12/16 04:42:42;;;;;;;141.00;33.63;;;7.60;99.10;;;;;;5049310;28;20377;-67
2020/12/16 04:45:09;;;;;;;145.90;34.55;;;7.60;99.10;;;;;;5044530;28;20032;-67
2020/12/16 04:47:35;;;;;;;150.35;35.13;;;7.60;99.10;;;;;;5050591;28;20086;-67
2020/12/16 04:50:06;;;;;;;148.77;31.63;;;7.60;99.10;;;;;;5051120;28;20025;-66
2020/12/16 04:52:32;;;;;;;135.50;31.97;;;7.60;99.10;;;;;;5048149;28;20112;-66
2020/12/16 04:54:58;;;;;;;125.45;32.28;;;7.60;99.10;;;;;;5051255;28;20029;-67
2020/12/16 04:57:24;;;;;;;120.00;30.48;;;7.60;99.10;;;;;;5050531;28;20536;-68
2020/12/16 04:59:56;;;;;;;127.43;29.73;;;7.50;99.10;;;;;;5042929;28;20033;-67
2020/12/16 05:02:22;;;;;;;150.60;30.58;;;7.50;99.10;;;;;;5027467;28;20025;-66
2020/12/16 05:04:48;;;;;;;153.70;30.00;;;7.50;99.10;;;;;;5046281;28;20021;-67
2020/12/16 05:07:27;;;;;;;136.73;28.80;;;7.50;99.10;;;;;;5048975;28;20025;-67
2020/12/16 05:09:53;;;;;;;123.75;29.90;;;7.40;99.10;;;;;;5047298;28;20047;-68
2020/12/16 05:12:19;;;;;;;122.05;31.02;;;7.50;99.10;;;;;;5047542;28;20029;-67
2020/12/16 05:14:44;;;;;;;116.05;29.92;;;7.40;99.10;;;;;;5050973;28;20055;-67
2020/12/16 05:17:10;;;;;;;104.50;29.45;;;7.50;99.10;;;;;;5046724;28;20111;-67
2020/12/16 05:19:45;;;;;;;109.00;30.45;;;7.50;99.10;;;;;;5050360;28;20024;-69
2020/12/16 05:22:24;;;;;;;118.85;31.55;;;7.50;99.10;;;;;;5049112;28;20021;-67
2020/12/16 05:24:53;;;;;;;109.40;30.95;;;7.50;99.10;;;;;;5049266;28;20035;-67
2020/12/16 05:27:32;;;;;;;103.85;29.75;;;7.50;99.10;;;;;;5041278;28;20438;-68
2020/12/16 05:30:00;;;;;;;100.72;30.05;;;7.50;99.10;;;;;;5044678;28;20032;-66
2020/12/16 05:32:28;;;;;;;95.35;30.58;;;7.50;99.10;;;;;;5044010;28;20139;-67
2020/12/16 05:34:56;;;;;;;93.00;27.92;;;7.50;99.10;;;;;;5050890;28;20064;-67
2020/12/16 05:37:31;;;;;;;95.13;29.38;;;7.40;99.10;;;;;;5049554;28;20035;-66
2020/12/16 05:39:59;;;;;;;84.53;27.38;;;7.30;99.10;;;;;;5050464;28;20396;-67
2020/12/16 05:42:26;;;;;;;85.85;27.80;;;7.30;99.10;;;;;;5047942;28;20509;-67
2020/12/16 05:44:54;;;;;;;90.78;28.30;;;7.30;99.10;;;;;;5050206;28;20098;-67
2020/12/16 05:47:19;;;;;;;93.55;26.55;;;7.30;99.10;;;;;;5031706;28;20029;-68
2020/12/16 05:49:45;;;;;;;108.70;27.33;;;7.30;99.10;;;;;;5051375;28;20044;-67
2020/12/16 05:52:10;;;;;;;89.65;26.85;;;7.20;99.10;;;;;;5045447;28;20033;-67
2020/12/16 05:54:37;;;;;;;93.28;28.40;;;7.20;99.10;;;;;;5042371;28;20037;-67
2020/12/16 05:57:20;;;;;;;77.72;25.70;;;7.10;99.10;;;;;;5047677;28;20025;-67
2020/12/16 06:00:08;;;;;;;76.68;26.17;;;7.10;99.00;;;;;;5049716;28;20031;-70
2020/12/16 06:02:44;;;;;;;75.88;25.30;;;7.10;99.00;;;;;;5043150;28;20125;-67
2020/12/16 06:05:11;;;;;;;87.53;26.08;;;7.00;99.10;;;;;;5049724;28;20154;-67
2020/12/16 06:07:47;;;;;;;91.70;26.85;;;7.00;99.10;;;;;;5048928;28;20110;-68
2020/12/16 06:10:14;;;;;;;81.45;26.73;;;7.00;99.10;;;;;;5050627;28;20033;-67
2020/12/16 06:12:44;;;;;;;95.05;28.42;;;7.10;99.10;;;;;;5049129;28;20032;-66
2020/12/16 06:15:15;;;;;;;96.63;26.97;;;7.10;99.10;;;;;;5047962;28;20068;-67
2020/12/16 06:17:43;;;;;;;85.07;26.83;;;7.10;99.10;;;;;;5042787;28;20098;-67
2020/12/16 06:20:14;;;;;;;83.10;26.42;;;7.10;99.10;;;;;;5049211;28;20043;-67
2020/12/16 06:22:44;;;;;;;92.55;27.40;;;7.10;99.10;;;;;;5048082;28;20354;-67
2020/12/16 06:25:13;;;;;;;89.63;26.55;;;7.00;99.10;;;;;;5035752;28;20283;-66
2020/12/16 06:27:45;;;;;;;93.70;28.35;;;7.00;99.10;;;;;;5042790;28;20126;-66
2020/12/16 06:30:32;;;;;;;89.47;26.63;;;7.00;99.10;;;;;;5044759;28;20125;-67
2020/12/16 06:33:13;;;;;;;85.45;26.13;;;6.90;99.00;;;;;;5045318;28;20391;-67
2020/12/16 06:35:42;;;;;;;88.05;26.02;;;6.80;99.00;;;;;;5050033;28;20068;-67
2020/12/16 06:38:22;;;;;;;89.65;26.02;;;6.80;99.00;;;;;;5044056;28;20041;-67
2020/12/16 06:40:50;;;;;;;88.13;27.05;;;6.60;99.00;;;;;;5048807;28;20069;-67
2020/12/16 06:43:31;;;;;;;105.45;25.42;;;6.40;99.00;;;;;;5046969;28;20025;-67
2020/12/16 06:45:59;;;;;;;99.60;26.38;;;6.20;98.90;;;;;;5045977;28;20108;-69
2020/12/16 06:48:38;;;;;;;105.05;25.80;;;6.10;98.90;;;;;;5047109;28;20025;-67
2020/12/16 06:51:18;;;;;;;106.82;26.15;;;6.00;98.90;;;;;;5048768;28;20486;-67
2020/12/16 06:53:45;;;;;;;132.65;25.77;;;5.90;98.90;;;;;;5045448;28;20079;-67
2020/12/16 06:56:10;;;;;;;328.63;27.10;;;5.90;98.90;;;;;;5048105;28;20127;-67
2020/12/16 06:58:38;;;;;;;154.18;25.60;;;5.60;98.90;;;;;;5047261;28;20150;-66
2020/12/16 07:01:14;;;;;;;160.20;28.05;;;5.50;98.90;;;;;;5046307;28;20111;-67
2020/12/16 07:03:40;;;;;;;179.77;27.60;;;5.40;98.90;;;;;;5046563;28;20017;-67
2020/12/16 07:06:13;;;;;;;140.82;26.70;;;5.30;98.90;;;;;;5048336;28;20025;-68
2020/12/16 07:08:39;;;;;;;141.30;28.13;;;5.30;98.90;;;;;;5049006;28;20386;-67
2020/12/16 07:11:05;;;;;;;165.07;28.95;;;5.30;99.00;;;;;;5046688;28;20644;-68
2020/12/16 07:13:32;;;;;;;152.18;28.85;;;5.40;99.00;;;;;;5048836;28;20029;-67
2020/12/16 07:16:09;;;;;;;150.13;29.77;;;5.30;99.00;;;;;;5047570;28;20033;-67
2020/12/16 07:18:46;;;;;;;190.35;29.65;;;5.30;99.00;;;;;;5042997;28;20040;-67
2020/12/16 07:21:14;;;;;;;156.77;30.25;;;5.10;99.00;;;;;;5043564;28;20037;-67
2020/12/16 07:23:41;;;;;;;135.80;28.92;;;5.40;99.10;;;;;;5049240;28;20409;-67
2020/12/16 07:26:08;;;;;;;167.23;30.88;;;5.50;99.10;;;;;;5048116;28;20401;-67
2020/12/16 07:28:37;;;;;;;165.32;29.98;;;5.60;99.10;;;;;;5047796;28;20399;-67
2020/12/16 07:31:06;;;;;;;166.15;30.92;;;5.80;99.10;;;;;;5043304;28;20431;-67
2020/12/16 07:33:33;;;;;;;199.60;31.80;;;5.80;99.10;;;;;;5044592;28;20064;-67
2020/12/16 07:36:00;;;;;;;269.92;33.90;;;6.00;99.10;;;;;;5048173;28;20029;-67
2020/12/16 07:38:26;;;;;;;322.13;33.30;;;6.00;99.10;;;;;;5048134;28;20036;-67
2020/12/16 07:40:55;;;;;;;306.33;29.88;;;6.00;99.10;;;;;;5048632;28;20036;-67
2020/12/16 07:43:22;;;;;;;314.48;28.77;;;6.00;99.10;;;;;;5048863;28;20029;-67
2020/12/16 07:46:03;;;;;;;264.00;28.20;;;6.00;99.10;;;;;;5048866;28;20028;-67
2020/12/16 07:48:29;;;;;;;259.52;28.85;;;6.10;99.10;;;;;;5029760;28;20093;-67
2020/12/16 07:51:05;;;;;;;277.92;28.13;;;6.10;99.00;;;;;;5036716;28;20114;-67
2020/12/16 07:53:32;;;;;;;259.10;27.83;;;6.10;99.00;;;;;;5042218;28;20390;-68
2020/12/16 07:55:59;;;;;;;227.23;25.05;;;6.10;99.00;;;;;;5045601;28;20459;-68
2020/12/16 07:58:25;;;;;;;222.77;26.10;;;6.10;99.00;;;;;;5046635;28;20044;-67
2020/12/16 08:00:51;;;;;;;246.13;25.83;;;6.10;99.00;;;;;;5048133;28;20037;-67
2020/12/16 08:03:17;;;;;;;295.33;27.50;;;6.10;99.00;;;;;;5044532;28;20506;-67
2020/12/16 08:05:43;;;;;;;289.30;25.17;;;6.20;99.00;;;;;;5048138;28;20110;-67
2020/12/16 08:08:09;;;;;;;303.25;27.42;;;6.20;99.00;;;;;;5045376;28;20047;-67
2020/12/16 08:10:35;;;;;;;250.57;24.65;;;6.20;99.00;;;;;;5049466;28;20044;-67
2020/12/16 08:13:00;;;;;;;204.48;24.52;;;6.20;99.00;;;;;;5042606;28;20025;-67
2020/12/16 08:15:29;;;;;;;217.70;24.10;;;6.20;99.00;;;;;;5047549;28;20041;-68
2020/12/16 08:17:55;;;;;;;277.50;25.27;;;6.10;99.00;;;;;;5041997;28;20047;-67
2020/12/16 08:20:25;;;;;;;274.15;25.67;;;6.10;99.00;;;;;;5044443;28;20171;-67
2020/12/16 08:23:00;;;;;;;270.65;25.60;;;6.10;99.00;;;;;;5045954;28;20021;-67
2020/12/16 08:25:27;;;;;;;252.35;24.40;;;6.10;99.00;;;;;;5048053;28;20044;-67
2020/12/16 08:27:54;;;;;;;313.65;26.95;;;6.10;99.00;;;;;;5050433;28;20020;-67
2020/12/16 08:30:25;;;;;;;264.73;24.88;;;6.10;99.00;;;;;;5050921;28;20020;-67
2020/12/16 08:32:57;;;;;;;;;;;6.20;99.00;;;;;;5049419;28;20094;-66
2020/12/16 08:35:30;;;;;;;244.27;24.13;;;6.20;99.00;;;;;;5049237;28;20006;-68
2020/12/16 08:38:03;;;;;;;262.80;24.60;;;6.10;98.90;;;;;;5050278;28;20025;-67
2020/12/16 08:40:30;;;;;;;274.08;24.30;;;6.20;98.90;;;;;;5050752;28;20041;-67
2020/12/16 08:43:15;;;;;;;309.75;25.17;;;6.20;99.00;;;;;;5048658;28;20021;-67
2020/12/16 08:45:40;;;;;;;318.45;25.17;;;6.10;98.90;;;;;;5046286;28;20096;-68
2020/12/16 08:48:06;;;;;;;290.92;23.40;;;6.10;98.90;;;;;;5049984;28;20032;-68
2020/12/16 08:50:31;;;;;;;346.77;24.20;;;6.20;98.90;;;;;;5050561;28;20051;-67
2020/12/16 08:53:00;;;;;;;313.77;24.83;;;6.20;98.90;;;;;;5048603;28;20063;-66
2020/12/16 08:55:26;;;;;;;254.18;23.60;;;6.20;99.00;;;;;;5049561;28;20053;-68
2020/12/16 08:57:53;;;;;;;297.95;24.45;;;6.20;98.90;;;;;;5046860;28;20052;-67
2020/12/16 09:00:28;;;;;;;310.25;23.60;;;6.20;98.90;;;;;;5049692;28;20108;-67
2020/12/16 09:03:02;;;;;;;345.30;22.90;;;6.20;98.90;;;;;;5048377;28;20052;-67
2020/12/16 09:05:28;;;;;;;313.63;23.65;;;6.20;98.90;;;;;;5043969;28;20078;-66
2020/12/16 09:08:11;;;;;;;248.98;21.90;;;6.20;98.90;;;;;;5048836;28;20029;-67
2020/12/16 09:10:38;;;;;;;334.30;23.33;;;6.20;98.90;;;;;;5049619;28;20037;-68
2020/12/16 09:13:12;;;;;;;239.63;20.92;;;6.20;98.90;;;;;;5044052;28;20110;-67
2020/12/16 09:15:38;;;;;;;247.20;20.67;;;6.20;98.90;;;;;;5047165;28;20029;-67
2020/12/16 09:18:04;;;;;;;206.73;20.25;;;6.20;98.90;;;;;;5044895;28;20032;-68
2020/12/16 09:20:32;;;;;;;245.95;21.30;;;6.20;98.90;;;;;;5042325;28;20504;-67
2020/12/16 09:22:58;;;;;;;210.65;20.58;;;6.10;98.90;;;;;;5049186;28;20061;-67
2020/12/16 09:25:24;;;;;;;331.38;22.45;;;6.20;98.90;;;;;;5050731;28;20111;-67
2020/12/16 09:27:54;;;;;;;311.65;21.38;;;6.20;98.90;;;;;;5049992;28;20060;-67
2020/12/16 09:30:31;;;;;;;243.73;22.27;;;6.20;98.90;;;;;;5049363;28;20312;-67
2020/12/16 09:32:57;;;;;;;290.05;20.27;;;6.30;98.90;;;;;;5045417;28;20029;-67
2020/12/16 09:35:24;;;;;;;311.52;22.90;;;6.40;98.90;;;;;;5040913;28;20036;-69
2020/12/16 09:37:50;;;;;;;190.80;21.17;;;6.40;98.90;;;;;;5040504;28;20025;-67
2020/12/16 09:40:16;;;;;;;164.15;21.38;;;6.40;98.90;;;;;;5049650;28;20029;-66
2020/12/16 09:42:59;;;;;;;200.93;20.40;;;6.40;98.90;;;;;;5048924;28;20036;-66
2020/12/16 09:45:31;;;;;;;118.05;18.25;;;6.50;98.90;;;;;;5049966;28;20029;-67
2020/12/16 09:47:56;;;;;;;175.48;20.92;;;6.50;98.90;;;;;;5047130;28;20036;-67
2020/12/16 09:50:27;;;;;;;135.57;19.25;;;6.50;98.80;;;;;;5049773;28;20024;-68
2020/12/16 09:53:07;;;;;;;155.95;19.88;;;6.50;98.80;;;;;;5039056;28;20481;-67
2020/12/16 09:55:40;;;;;;;123.90;18.98;;;6.60;98.80;;;;;;5043504;28;20048;-68
2020/12/16 09:58:13;;;;;;;146.27;19.85;;;6.60;98.80;;;;;;5048770;28;20248;-69
2020/12/16 10:00:43;;;;;;;183.63;20.27;;;6.60;98.80;;;;;;5048169;28;20057;-68
2020/12/16 10:03:11;;;;;;;182.77;20.65;;;6.60;98.80;;;;;;5048276;28;20562;-69
2020/12/16 10:05:38;;;;;;;130.27;20.73;;;6.60;98.80;;;;;;5047264;28;20047;-70
2020/12/16 10:08:06;;;;;;;135.60;20.17;;;6.70;98.80;;;;;;5047476;28;20040;-68
2020/12/16 10:10:32;;;;;;;132.23;20.00;;;6.70;98.80;;;;;;5048024;28;20036;-68
2020/12/16 10:12:58;;;;;;;113.07;20.45;;;6.80;98.80;;;;;;5048681;28;20040;-68
2020/12/16 10:15:24;;;;;;;102.28;20.20;;;6.80;98.80;;;;;;5045982;28;20512;-68
2020/12/16 10:17:50;;;;;;;104.50;21.08;;;6.80;98.80;;;;;;5042491;28;20037;-68
2020/12/16 10:20:16;;;;;;;67.25;18.17;;;6.80;98.70;;;;;;5049108;28;20082;-68
2020/12/16 10:22:42;;;;;;;72.10;19.30;;;6.90;98.70;;;;;;5047474;28;20111;-69
2020/12/16 10:25:08;;;;;;;77.25;19.60;;;6.80;98.70;;;;;;5044702;28;20080;-69
2020/12/16 10:27:34;;;;;;;83.15;21.67;;;6.90;98.60;;;;;;5044254;28;20049;-68
2020/12/16 10:30:01;;;;;;;55.17;20.02;;;6.90;98.70;;;;;;5041978;28;20041;-67
2020/12/16 10:32:27;;;;;;;68.60;20.90;;;6.90;98.60;;;;;;5043122;28;20032;-68
2020/12/16 10:34:53;;;;;;;61.30;20.20;;;6.90;98.60;;;;;;5047733;28;20028;-68
2020/12/16 10:37:21;;;;;;;57.67;21.25;;;6.90;98.60;;;;;;5042453;28;20248;-68
2020/12/16 10:39:47;;;;;;;64.05;21.52;;;6.90;98.50;;;;;;5046822;28;21315;-68
2020/12/16 10:42:13;;;;;;;64.97;20.80;;;7.00;98.50;;;;;;5039864;28;20025;-68
2020/12/16 10:44:38;;;;;;;60.50;21.63;;;7.00;98.50;;;;;;5032347;28;20496;-68
2020/12/16 10:47:06;;;;;;;69.22;21.42;;;7.10;98.50;;;;;;5035871;28;20040;-68
2020/12/16 10:49:32;;;;;;;70.07;22.20;;;7.10;98.40;;;;;;5039991;28;20039;-68
2020/12/16 10:52:04;;;;;;;64.85;23.25;;;7.10;98.40;;;;;;5042770;28;20521;-68
2020/12/16 10:54:29;;;;;;;57.72;21.05;;;7.20;98.30;;;;;;5035831;28;20075;-69
2020/12/16 10:56:56;;;;;;;57.10;22.00;;;7.20;98.40;;;;;;5030293;28;20064;-68
2020/12/16 10:59:22;;;;;;;59.20;21.63;;;7.30;98.30;;;;;;5043916;28;20088;-68
2020/12/16 11:01:48;;;;;;;49.13;21.30;;;7.40;98.30;;;;;;5032440;28;20025;-69
2020/12/16 11:04:14;;;;;;;56.75;21.67;;;7.30;98.20;;;;;;5042406;28;20029;-69
2020/12/16 11:06:44;;;;;;;48.58;21.00;;;7.40;98.20;;;;;;5039181;28;20040;-68
2020/12/16 11:09:10;;;;;;;45.55;20.77;;;7.30;98.00;;;;;;5043569;28;20120;-70
2020/12/16 11:11:46;;;;;;;52.95;22.25;;;7.40;98.00;;;;;;5040492;28;20154;-68
2020/12/16 11:14:12;;;;;;;59.97;21.30;;;7.50;97.90;;;;;;5038863;28;20060;-68
2020/12/16 11:16:40;;;;;;;53.00;22.13;;;7.50;97.90;;;;;;5035487;28;20097;-68
2020/12/16 11:19:07;;;;;;;58.05;23.77;;;7.50;97.90;;;;;;5042114;28;20104;-69
2020/12/16 11:21:46;;;;;;;49.33;21.98;;;7.60;97.80;;;;;;5035625;28;20143;-68
2020/12/16 11:24:13;;;;;;;51.90;22.20;;;7.60;97.70;;;;;;5036924;28;20461;-68
2020/12/16 11:26:41;;;;;;;51.30;23.90;;;7.60;97.80;;;;;;5036835;28;20598;-69
2020/12/16 11:29:08;;;;;;;46.88;20.98;;;7.70;97.70;;;;;;5040106;28;20421;-68
2020/12/16 11:31:54;;;;;;;54.13;23.42;;;7.70;97.60;;;;;;5042224;28;20041;-68
2020/12/16 11:34:22;;;;;;;53.85;24.02;;;7.70;97.50;;;;;;5038832;28;20028;-68
2020/12/16 11:36:49;;;;;;;49.78;21.77;;;7.90;97.60;;;;;;5037939;28;20018;-67
2020/12/16 11:39:16;;;;;;;53.63;23.08;;;7.80;97.40;;;;;;5040113;28;20033;-68
2020/12/16 11:41:45;;;;;;;54.67;22.65;;;7.90;97.50;;;;;;5043101;28;20034;-68
2020/12/16 11:44:13;;;;;;;50.20;23.10;;;8.00;97.50;;;;;;5035798;28;20428;-69
2020/12/16 11:46:38;;;;;;;48.60;21.40;;;8.00;97.30;;;;;;5029985;28;20029;-68
2020/12/16 11:49:04;;;;;;;54.67;22.73;;;7.90;97.30;;;;;;5040044;28;20108;-68
2020/12/16 11:51:30;;;;;;;58.50;23.48;;;8.00;97.30;;;;;;5041424;28;20028;-68
2020/12/16 11:53:56;;;;;;;50.17;23.70;;;8.00;97.30;;;;;;5039683;28;20064;-68
2020/12/16 11:56:22;;;;;;;53.58;23.08;;;8.10;97.30;;;;;;5029211;28;20450;-68
2020/12/16 11:58:48;;;;;;;41.85;21.73;;;8.10;97.20;;;;;;5037839;28;20063;-67
2020/12/16 12:01:17;;;;;;;47.58;23.27;;;8.10;97.20;;;;;;5043172;28;20072;-68
2020/12/16 12:03:44;;;;;;;47.20;23.58;;;8.10;96.90;;;;;;5041493;28;20432;-68
2020/12/16 12:06:10;;;;;;;47.90;22.42;;;8.20;96.90;;;;;;5046291;28;20025;-69
2020/12/16 12:08:37;;;;;;;42.55;23.30;;;8.20;96.60;;;;;;5036141;28;20485;-69
2020/12/16 12:11:03;;;;;;;49.08;24.13;;;8.30;96.80;;;;;;5048712;28;20064;-68
2020/12/16 12:13:28;;;;;;;44.10;22.85;;;8.40;96.80;;;;;;5033297;28;20041;-68
2020/12/16 12:15:55;;;;;;;41.70;21.98;;;8.40;96.90;;;;;;5047613;28;20029;-69
2020/12/16 12:18:20;;;;;;;47.55;23.42;;;8.50;96.90;;;;;;5038108;28;20033;-70
2020/12/16 12:20:46;;;;;;;41.95;22.30;;;8.50;96.50;;;;;;5043547;28;20431;-68
2020/12/16 12:23:12;;;;;;;44.03;23.05;;;8.50;96.50;;;;;;5046469;28;20040;-68
2020/12/16 12:25:37;;;;;;;40.28;21.58;;;8.50;96.50;;;;;;5049216;28;20035;-69
2020/12/16 12:28:03;;;;;;;36.42;21.63;;;8.50;96.50;;;;;;5047258;28;20029;-69
2020/12/16 12:30:29;;;;;;;35.55;20.92;;;8.50;96.20;;;;;;5045907;28;20056;-69
2020/12/16 12:32:54;;;;;;;30.67;19.00;;;8.50;95.90;;;;;;5045886;28;20025;-68
2020/12/16 12:35:20;;;;;;;34.65;19.45;;;8.60;96.00;;;;;;5044795;28;20512;-68